PDT,Max TemperatureF,Mean TemperatureF,Min TemperatureF,Max Dew PointF,MeanDew PointF,Min DewpointF,Max Humidity, Mean Humidity, Min Humidity, Max Sea Level PressureIn, Mean Sea Level PressureIn, Min Sea Level PressureIn, Max VisibilityMiles, Mean VisibilityMiles, Min VisibilityMiles, Max Wind SpeedMPH, Mean Wind SpeedMPH, Max Gust SpeedMPH,PrecipitationIn, CloudCover, Events, WindDirDegrees
2013-4-1,55,52,49,49,47,46,93,88,83,30.19,30.11,30.02,10,9,2,17,9,23,0.00,8,Rain,219
2013-4-2,54,51,48,48,47,44,100,89,77,30.22,30.20,30.19,10,7,1,16,8,21,0.13,8,Rain,231
2013-4-3,62,52,41,50,45,39,92,72,51,30.19,30.07,29.89,10,10,10,12,4,15,0.00,4,,42
2013-4-4,56,54,51,54,51,48,100,92,83,29.89,29.72,29.64,10,6,1,26,6,41,0.25,8,Rain,178
2013-4-5,52,51,50,49,48,46,93,90,86,29.91,29.85,29.73,10,5,1,25,15,38,0.87,8,Rain,197
2013-4-6,54,50,46,48,46,42,89,83,77,29.96,29.88,29.62,10,8,1,23,13,31,0.42,8,Rain,215
2013-4-7,51,47,42,49,43,39,93,87,80,29.97,29.72,29.46,10,7,2,26,12,39,0.85,8,Rain,250
2013-4-8,52,47,42,44,42,39,92,79,66,30.30,30.18,29.98,10,10,9,28,8,33,T,7,Rain,269
2013-4-9,53,47,40,44,41,39,93,80,66,30.34,30.30,30.22,10,10,10,10,3,13,T,7,,145
2013-4-10,54,52,50,49,46,39,89,76,63,30.34,30.19,30.06,10,7,1,28,14,40,0.48,8,Rain,242
2013-4-11,54,49,44,45,41,35,93,74,54,30.36,30.31,30.21,10,9,2,17,8,21,0.11,6,Rain,287
2013-4-12,49,43,37,45,41,36,93,80,66,30.22,29.95,29.83,10,6,1,24,6,33,0.19,7,Rain,204
2013-4-13,50,45,40,41,38,31,58,58,58,30.07,30.03,29.94,10,8,1,26,13,35,0.20,7,Rain,266
2013-4-14,51,45,38,41,38,35,100,81,61,30.07,30.01,29.97,10,10,3,16,7,21,0.03,4,Rain,267
2013-4-15,53,46,39,43,39,36,93,77,61,30.20,30.06,29.96,10,10,10,16,7,20,T,5,Rain,274
2013-4-16,56,47,38,43,40,36,92,78,63,30.41,30.31,30.21,10,10,10,13,5,17,0.00,4,,348
2013-4-17,54,47,39,45,41,37,93,80,66,30.50,30.47,30.42,10,10,10,13,5,20,0.00,6,,280
2013-4-18,53,48,43,49,45,40,93,82,71,30.48,30.41,30.29,10,6,2,15,7,21,0.05,8,Rain,192
2013-4-19,51,50,49,49,48,46,100,92,83,30.31,30.21,30.13,10,4,1,21,14,31,1.07,8,Rain,254
2013-4-20,54,50,46,45,44,42,93,82,71,30.36,30.33,30.30,10,9,2,15,9,18,0.05,8,Rain,267
2013-4-21,53,50,46,45,43,40,86,75,63,30.35,30.30,30.28,10,9,5,15,8,18,0.01,7,Rain,279
2013-4-22,63,49,35,43,38,34,93,65,36,30.46,30.42,30.37,10,10,10,16,7,21,0.00,0,,24
2013-4-23,62,48,34,46,39,32,92,64,36,30.40,30.30,30.23,10,10,10,21,6,24,0.00,0,,315
2013-4-24,71,55,38,43,39,35,93,61,28,30.26,30.19,30.09,10,10,10,22,8,28,0.00,0,,14
2013-4-25,60,51,41,49,45,40,93,80,67,30.21,30.13,30.06,10,10,10,15,6,18,0.00,3,,298
2013-4-26,68,58,47,51,44,32,86,57,28,30.27,30.25,30.21,10,10,10,13,6,15,0.00,3,,337
2013-4-27,53,47,41,50,45,37,92,85,77,30.31,30.27,30.23,10,8,2,17,6,22,0.01,7,Rain,214
2013-4-28,56,53,49,52,47,43,100,83,66,30.28,30.22,30.06,10,7,2,14,9,23,0.05,8,Rain,249
2013-4-29,54,50,45,50,40,33,93,70,46,30.25,30.17,30.06,10,9,2,22,14,29,0.01,6,Rain,295
2013-4-30,54,48,42,38,35,30,76,59,41,30.48,30.36,30.25,10,10,9,21,12,28,0.02,4,Rain,320